sensor_id;sensor_type;location;lat;lon;timestamp;P1;durP1;ratioP1;P2;durP2;ratioP2
22557;SDS011;11445;53.816;8.902;2023-08-31T00:02:02;19.65;;;14.18;;
22557;SDS011;11445;53.816;8.902;2023-08-31T00:04:29;26.35;;;15.02;;
22557;SDS011;11445;53.816;8.902;2023-08-31T00:06:56;19.92;;;14.38;;
22557;SDS011;11445;53.816;8.902;2023-08-31T00:09:23;20.85;;;13.68;;
22557;SDS011;11445;53.816;8.902;2023-08-31T00:11:50;19.75;;;14.35;;
22557;SDS011;11445;53.816;8.902;2023-08-31T00:14:17;19.80;;;13.93;;
22557;SDS011;11445;53.816;8.902;2023-08-31T00:16:45;17.80;;;13.38;;
22557;SDS011;11445;53.816;8.902;2023-08-31T00:19:13;19.15;;;13.75;;
22557;SDS011;11445;53.816;8.902;2023-08-31T00:21:40;19.60;;;13.10;;
22557;SDS011;11445;53.816;8.902;2023-08-31T00:24:07;20.25;;;13.10;;
22557;SDS011;11445;53.816;8.902;2023-08-31T00:26:35;25.70;;;13.18;;
22557;SDS011;11445;53.816;8.902;2023-08-31T00:29:07;20.48;;;12.75;;
22557;SDS011;11445;53.816;8.902;2023-08-31T00:31:36;20.77;;;13.40;;
22557;SDS011;11445;53.816;8.902;2023-08-31T00:34:04;21.15;;;12.45;;
22557;SDS011;11445;53.816;8.902;2023-08-31T00:36:32;15.27;;;12.68;;
22557;SDS011;11445;53.816;8.902;2023-08-31T00:38:58;20.23;;;12.48;;
22557;SDS011;11445;53.816;8.902;2023-08-31T00:41:31;21.73;;;11.73;;
22557;SDS011;11445;53.816;8.902;2023-08-31T00:43:57;15.20;;;10.80;;
22557;SDS011;11445;53.816;8.902;2023-08-31T00:46:24;13.73;;;11.10;;
22557;SDS011;11445;53.816;8.902;2023-08-31T00:48:52;14.68;;;10.70;;
22557;SDS011;11445;53.816;8.902;2023-08-31T00:51:21;14.27;;;10.65;;
22557;SDS011;11445;53.816;8.902;2023-08-31T00:53:48;15.45;;;9.68;;
22557;SDS011;11445;53.816;8.902;2023-08-31T00:56:18;14.15;;;9.98;;
22557;SDS011;11445;53.816;8.902;2023-08-31T00:58:45;20.13;;;10.55;;
22557;SDS011;11445;53.816;8.902;2023-08-31T01:01:14;17.13;;;9.55;;
22557;SDS011;11445;53.816;8.902;2023-08-31T01:03:49;16.83;;;9.60;;
22557;SDS011;11445;53.816;8.902;2023-08-31T01:06:27;14.07;;;9.30;;
22557;SDS011;11445;53.816;8.902;2023-08-31T01:09:02;10.63;;;7.63;;
22557;SDS011;11445;53.816;8.902;2023-08-31T01:11:37;9.82;;;7.57;;
22557;SDS011;11445;53.816;8.902;2023-08-31T01:14:16;17.98;;;8.00;;
22557;SDS011;11445;53.816;8.902;2023-08-31T01:16:48;11.85;;;7.00;;
22557;SDS011;11445;53.816;8.902;2023-08-31T01:19:17;10.35;;;6.80;;
22557;SDS011;11445;53.816;8.902;2023-08-31T01:22:03;9.05;;;6.38;;
22557;SDS011;11445;53.816;8.902;2023-08-31T01:24:37;7.85;;;6.25;;
22557;SDS011;11445;53.816;8.902;2023-08-31T01:27:04;12.57;;;6.18;;
22557;SDS011;11445;53.816;8.902;2023-08-31T01:29:31;12.38;;;5.38;;
22557;SDS011;11445;53.816;8.902;2023-08-31T01:31:58;9.82;;;5.07;;
22557;SDS011;11445;53.816;8.902;2023-08-31T01:34:25;11.75;;;4.88;;
22557;SDS011;11445;53.816;8.902;2023-08-31T01:36:53;8.30;;;4.22;;
22557;SDS011;11445;53.816;8.902;2023-08-31T01:39:26;7.95;;;4.28;;
22557;SDS011;11445;53.816;8.902;2023-08-31T01:42:02;5.72;;;4.00;;
22557;SDS011;11445;53.816;8.902;2023-08-31T01:44:31;7.45;;;4.38;;
22557;SDS011;11445;53.816;8.902;2023-08-31T01:47:02;6.47;;;3.58;;
22557;SDS011;11445;53.816;8.902;2023-08-31T01:49:35;6.45;;;4.00;;
22557;SDS011;11445;53.816;8.902;2023-08-31T01:52:03;10.95;;;3.65;;
22557;SDS011;11445;53.816;8.902;2023-08-31T01:54:30;9.45;;;3.80;;
22557;SDS011;11445;53.816;8.902;2023-08-31T01:56:57;8.75;;;3.50;;
22557;SDS011;11445;53.816;8.902;2023-08-31T01:59:25;6.88;;;2.97;;
22557;SDS011;11445;53.816;8.902;2023-08-31T02:01:52;5.75;;;3.33;;
22557;SDS011;11445;53.816;8.902;2023-08-31T02:04:19;10.77;;;3.50;;
22557;SDS011;11445;53.816;8.902;2023-08-31T02:06:46;5.38;;;3.30;;
22557;SDS011;11445;53.816;8.902;2023-08-31T02:09:13;3.55;;;3.08;;
22557;SDS011;11445;53.816;8.902;2023-08-31T02:11:40;5.53;;;3.15;;
22557;SDS011;11445;53.816;8.902;2023-08-31T02:14:07;4.97;;;3.30;;
22557;SDS011;11445;53.816;8.902;2023-08-31T02:16:35;6.78;;;2.97;;
22557;SDS011;11445;53.816;8.902;2023-08-31T02:19:02;3.88;;;2.80;;
22557;SDS011;11445;53.816;8.902;2023-08-31T02:21:29;3.58;;;2.30;;
22557;SDS011;11445;53.816;8.902;2023-08-31T02:23:55;3.90;;;2.40;;
22557;SDS011;11445;53.816;8.902;2023-08-31T02:26:22;8.68;;;2.83;;
22557;SDS011;11445;53.816;8.902;2023-08-31T02:28:49;5.40;;;2.50;;
22557;SDS011;11445;53.816;8.902;2023-08-31T02:31:16;8.82;;;2.50;;
22557;SDS011;11445;53.816;8.902;2023-08-31T02:33:45;5.15;;;2.17;;
22557;SDS011;11445;53.816;8.902;2023-08-31T02:36:12;4.35;;;2.50;;
22557;SDS011;11445;53.816;8.902;2023-08-31T02:38:38;6.60;;;2.60;;
22557;SDS011;11445;53.816;8.902;2023-08-31T02:41:05;6.65;;;2.00;;
22557;SDS011;11445;53.816;8.902;2023-08-31T02:43:31;4.25;;;2.22;;
22557;SDS011;11445;53.816;8.902;2023-08-31T02:45:58;4.30;;;2.10;;
22557;SDS011;11445;53.816;8.902;2023-08-31T02:48:26;3.95;;;2.20;;
22557;SDS011;11445;53.816;8.902;2023-08-31T02:50:56;4.93;;;2.13;;
22557;SDS011;11445;53.816;8.902;2023-08-31T02:53:23;3.17;;;2.08;;
22557;SDS011;11445;53.816;8.902;2023-08-31T02:55:49;9.32;;;2.40;;
22557;SDS011;11445;53.816;8.902;2023-08-31T02:58:16;4.13;;;2.10;;
22557;SDS011;11445;53.816;8.902;2023-08-31T03:00:44;5.00;;;2.10;;
22557;SDS011;11445;53.816;8.902;2023-08-31T03:03:13;5.68;;;2.10;;
22557;SDS011;11445;53.816;8.902;2023-08-31T03:05:40;4.05;;;2.20;;
22557;SDS011;11445;53.816;8.902;2023-08-31T03:08:08;6.20;;;2.38;;
22557;SDS011;11445;53.816;8.902;2023-08-31T03:10:35;6.68;;;2.70;;
22557;SDS011;11445;53.816;8.902;2023-08-31T03:13:02;6.88;;;2.97;;
22557;SDS011;11445;53.816;8.902;2023-08-31T03:15:29;7.78;;;2.40;;
22557;SDS011;11445;53.816;8.902;2023-08-31T03:17:58;6.55;;;2.40;;
22557;SDS011;11445;53.816;8.902;2023-08-31T03:20:25;5.05;;;2.63;;
22557;SDS011;11445;53.816;8.902;2023-08-31T03:22:52;5.45;;;2.25;;
22557;SDS011;11445;53.816;8.902;2023-08-31T03:25:20;6.60;;;2.75;;
22557;SDS011;11445;53.816;8.902;2023-08-31T03:27:47;5.20;;;2.33;;
22557;SDS011;11445;53.816;8.902;2023-08-31T03:30:14;3.80;;;2.72;;
22557;SDS011;11445;53.816;8.902;2023-08-31T03:32:40;5.50;;;2.55;;
22557;SDS011;11445;53.816;8.902;2023-08-31T03:35:08;7.18;;;2.45;;
22557;SDS011;11445;53.816;8.902;2023-08-31T03:37:35;6.78;;;2.50;;
22557;SDS011;11445;53.816;8.902;2023-08-31T03:40:02;7.25;;;2.38;;
22557;SDS011;11445;53.816;8.902;2023-08-31T03:42:32;11.23;;;2.33;;
22557;SDS011;11445;53.816;8.902;2023-08-31T03:44:59;7.18;;;2.35;;
22557;SDS011;11445;53.816;8.902;2023-08-31T03:47:26;7.13;;;2.30;;
22557;SDS011;11445;53.816;8.902;2023-08-31T03:49:53;6.35;;;2.83;;
22557;SDS011;11445;53.816;8.902;2023-08-31T03:52:20;5.13;;;2.75;;
22557;SDS011;11445;53.816;8.902;2023-08-31T03:54:47;7.25;;;2.50;;
22557;SDS011;11445;53.816;8.902;2023-08-31T03:57:15;9.57;;;2.55;;
22557;SDS011;11445;53.816;8.902;2023-08-31T03:59:44;3.30;;;2.63;;
22557;SDS011;11445;53.816;8.902;2023-08-31T04:02:10;6.03;;;2.60;;
22557;SDS011;11445;53.816;8.902;2023-08-31T04:04:37;6.65;;;2.53;;
22557;SDS011;11445;53.816;8.902;2023-08-31T04:07:04;6.38;;;2.40;;
22557;SDS011;11445;53.816;8.902;2023-08-31T04:09:31;9.60;;;3.22;;
22557;SDS011;11445;53.816;8.902;2023-08-31T04:11:58;9.63;;;3.17;;
22557;SDS011;11445;53.816;8.902;2023-08-31T04:14:25;6.15;;;2.63;;
22557;SDS011;11445;53.816;8.902;2023-08-31T04:16:54;7.63;;;2.08;;
22557;SDS011;11445;53.816;8.902;2023-08-31T04:19:20;5.68;;;2.60;;
22557;SDS011;11445;53.816;8.902;2023-08-31T04:21:47;5.30;;;2.42;;
22557;SDS011;11445;53.816;8.902;2023-08-31T04:24:14;10.98;;;2.85;;
22557;SDS011;11445;53.816;8.902;2023-08-31T04:26:41;7.82;;;2.45;;
22557;SDS011;11445;53.816;8.902;2023-08-31T04:29:09;7.20;;;2.08;;
22557;SDS011;11445;53.816;8.902;2023-08-31T04:31:36;4.13;;;2.13;;
22557;SDS011;11445;53.816;8.902;2023-08-31T04:34:04;10.05;;;2.58;;
22557;SDS011;11445;53.816;8.902;2023-08-31T04:36:32;5.65;;;3.00;;
22557;SDS011;11445;53.816;8.902;2023-08-31T04:38:59;7.40;;;2.90;;
22557;SDS011;11445;53.816;8.902;2023-08-31T04:41:25;5.22;;;2.78;;
22557;SDS011;11445;53.816;8.902;2023-08-31T04:43:52;7.53;;;2.75;;
22557;SDS011;11445;53.816;8.902;2023-08-31T04:46:19;6.32;;;2.60;;
22557;SDS011;11445;53.816;8.902;2023-08-31T04:48:46;9.27;;;2.60;;
22557;SDS011;11445;53.816;8.902;2023-08-31T04:51:28;6.07;;;2.92;;
22557;SDS011;11445;53.816;8.902;2023-08-31T04:53:55;4.93;;;2.28;;
22557;SDS011;11445;53.816;8.902;2023-08-31T04:56:22;5.20;;;2.72;;
22557;SDS011;11445;53.816;8.902;2023-08-31T04:58:49;4.65;;;2.85;;
22557;SDS011;11445;53.816;8.902;2023-08-31T05:01:16;4.45;;;2.75;;
22557;SDS011;11445;53.816;8.902;2023-08-31T05:03:43;7.00;;;2.88;;
22557;SDS011;11445;53.816;8.902;2023-08-31T05:06:09;8.85;;;3.35;;
22557;SDS011;11445;53.816;8.902;2023-08-31T05:08:37;6.68;;;3.47;;
22557;SDS011;11445;53.816;8.902;2023-08-31T05:11:04;13.25;;;3.22;;
22557;SDS011;11445;53.816;8.902;2023-08-31T05:13:31;3.70;;;3.20;;
22557;SDS011;11445;53.816;8.902;2023-08-31T05:15:58;5.00;;;3.50;;
22557;SDS011;11445;53.816;8.902;2023-08-31T05:18:25;10.00;;;3.05;;
22557;SDS011;11445;53.816;8.902;2023-08-31T05:20:51;7.72;;;3.35;;
22557;SDS011;11445;53.816;8.902;2023-08-31T05:23:18;11.15;;;3.28;;
22557;SDS011;11445;53.816;8.902;2023-08-31T05:25:46;6.20;;;3.10;;
22557;SDS011;11445;53.816;8.902;2023-08-31T05:28:13;8.07;;;3.42;;
22557;SDS011;11445;53.816;8.902;2023-08-31T05:30:47;5.95;;;3.40;;
22557;SDS011;11445;53.816;8.902;2023-08-31T05:33:15;7.38;;;3.28;;
22557;SDS011;11445;53.816;8.902;2023-08-31T05:35:41;7.25;;;3.67;;
22557;SDS011;11445;53.816;8.902;2023-08-31T05:38:08;5.30;;;3.08;;
22557;SDS011;11445;53.816;8.902;2023-08-31T05:40:35;6.50;;;3.15;;
22557;SDS011;11445;53.816;8.902;2023-08-31T05:43:03;4.97;;;2.90;;
22557;SDS011;11445;53.816;8.902;2023-08-31T05:45:31;6.80;;;3.20;;
22557;SDS011;11445;53.816;8.902;2023-08-31T05:47:58;6.82;;;3.28;;
22557;SDS011;11445;53.816;8.902;2023-08-31T05:50:25;8.55;;;3.17;;
22557;SDS011;11445;53.816;8.902;2023-08-31T05:52:53;6.13;;;3.33;;
22557;SDS011;11445;53.816;8.902;2023-08-31T05:55:19;9.85;;;3.53;;
22557;SDS011;11445;53.816;8.902;2023-08-31T05:57:46;5.63;;;2.92;;
22557;SDS011;11445;53.816;8.902;2023-08-31T06:00:15;4.70;;;3.10;;
22557;SDS011;11445;53.816;8.902;2023-08-31T06:02:43;8.15;;;3.10;;
22557;SDS011;11445;53.816;8.902;2023-08-31T06:05:10;8.85;;;3.25;;
22557;SDS011;11445;53.816;8.902;2023-08-31T06:07:38;9.13;;;2.72;;
22557;SDS011;11445;53.816;8.902;2023-08-31T06:10:06;3.65;;;2.88;;
22557;SDS011;11445;53.816;8.902;2023-08-31T06:12:33;10.43;;;3.20;;
22557;SDS011;11445;53.816;8.902;2023-08-31T06:15:00;5.60;;;3.10;;
22557;SDS011;11445;53.816;8.902;2023-08-31T06:17:29;7.88;;;3.00;;
22557;SDS011;11445;53.816;8.902;2023-08-31T06:19:56;4.57;;;2.83;;
22557;SDS011;11445;53.816;8.902;2023-08-31T06:22:23;5.45;;;3.03;;
22557;SDS011;11445;53.816;8.902;2023-08-31T06:24:49;7.97;;;3.10;;
22557;SDS011;11445;53.816;8.902;2023-08-31T06:27:16;7.00;;;3.40;;
22557;SDS011;11445;53.816;8.902;2023-08-31T06:29:43;4.55;;;2.58;;
22557;SDS011;11445;53.816;8.902;2023-08-31T06:32:10;7.32;;;2.65;;
22557;SDS011;11445;53.816;8.902;2023-08-31T06:34:38;4.47;;;2.40;;
22557;SDS011;11445;53.816;8.902;2023-08-31T06:37:05;7.38;;;2.60;;
22557;SDS011;11445;53.816;8.902;2023-08-31T06:39:32;4.93;;;2.67;;
22557;SDS011;11445;53.816;8.902;2023-08-31T06:41:59;5.03;;;2.28;;
22557;SDS011;11445;53.816;8.902;2023-08-31T06:44:26;6.82;;;2.35;;
22557;SDS011;11445;53.816;8.902;2023-08-31T06:46:54;6.03;;;2.65;;
22557;SDS011;11445;53.816;8.902;2023-08-31T06:49:21;7.22;;;2.38;;
22557;SDS011;11445;53.816;8.902;2023-08-31T06:51:49;11.85;;;2.75;;
22557;SDS011;11445;53.816;8.902;2023-08-31T06:54:19;2.80;;;2.00;;
22557;SDS011;11445;53.816;8.902;2023-08-31T06:56:45;3.97;;;2.20;;
22557;SDS011;11445;53.816;8.902;2023-08-31T06:59:13;4.40;;;2.38;;
22557;SDS011;11445;53.816;8.902;2023-08-31T07:01:40;6.78;;;2.63;;
22557;SDS011;11445;53.816;8.902;2023-08-31T07:04:07;7.65;;;2.50;;
22557;SDS011;11445;53.816;8.902;2023-08-31T07:06:34;4.75;;;2.75;;
22557;SDS011;11445;53.816;8.902;2023-08-31T07:09:03;6.80;;;2.60;;
22557;SDS011;11445;53.816;8.902;2023-08-31T07:11:33;5.70;;;2.97;;
22557;SDS011;11445;53.816;8.902;2023-08-31T07:13:59;4.28;;;2.30;;
22557;SDS011;11445;53.816;8.902;2023-08-31T07:16:26;5.47;;;2.50;;
22557;SDS011;11445;53.816;8.902;2023-08-31T07:18:53;7.25;;;2.75;;
22557;SDS011;11445;53.816;8.902;2023-08-31T07:21:20;7.20;;;2.60;;
22557;SDS011;11445;53.816;8.902;2023-08-31T07:23:47;6.05;;;2.70;;
22557;SDS011;11445;53.816;8.902;2023-08-31T07:26:15;4.30;;;2.60;;
22557;SDS011;11445;53.816;8.902;2023-08-31T07:28:42;3.53;;;2.70;;
22557;SDS011;11445;53.816;8.902;2023-08-31T07:31:09;10.35;;;3.33;;
22557;SDS011;11445;53.816;8.902;2023-08-31T07:33:36;9.95;;;3.00;;
22557;SDS011;11445;53.816;8.902;2023-08-31T07:36:03;5.30;;;3.28;;
22557;SDS011;11445;53.816;8.902;2023-08-31T07:38:31;4.65;;;2.50;;
22557;SDS011;11445;53.816;8.902;2023-08-31T07:40:59;2.72;;;2.42;;
22557;SDS011;11445;53.816;8.902;2023-08-31T07:43:27;6.45;;;2.70;;
22557;SDS011;11445;53.816;8.902;2023-08-31T07:45:54;6.43;;;3.03;;
22557;SDS011;11445;53.816;8.902;2023-08-31T07:48:21;7.15;;;3.00;;
22557;SDS011;11445;53.816;8.902;2023-08-31T07:50:49;7.40;;;3.50;;
22557;SDS011;11445;53.816;8.902;2023-08-31T07:53:15;5.85;;;3.15;;
22557;SDS011;11445;53.816;8.902;2023-08-31T07:55:50;3.75;;;2.67;;
22557;SDS011;11445;53.816;8.902;2023-08-31T07:58:19;4.55;;;2.80;;
22557;SDS011;11445;53.816;8.902;2023-08-31T08:00:47;12.93;;;3.67;;
22557;SDS011;11445;53.816;8.902;2023-08-31T08:03:14;7.57;;;3.17;;
22557;SDS011;11445;53.816;8.902;2023-08-31T08:05:41;5.65;;;3.45;;
22557;SDS011;11445;53.816;8.902;2023-08-31T08:08:08;5.78;;;3.40;;
22557;SDS011;11445;53.816;8.902;2023-08-31T08:10:35;5.78;;;3.60;;
22557;SDS011;11445;53.816;8.902;2023-08-31T08:13:02;5.93;;;3.67;;
22557;SDS011;11445;53.816;8.902;2023-08-31T08:15:30;8.52;;;3.75;;
22557;SDS011;11445;53.816;8.902;2023-08-31T08:17:58;7.70;;;4.18;;
22557;SDS011;11445;53.816;8.902;2023-08-31T08:20:25;6.38;;;3.47;;
22557;SDS011;11445;53.816;8.902;2023-08-31T08:22:53;3.72;;;3.30;;
22557;SDS011;11445;53.816;8.902;2023-08-31T08:25:20;8.65;;;3.80;;
22557;SDS011;11445;53.816;8.902;2023-08-31T08:27:48;13.95;;;3.38;;
22557;SDS011;11445;53.816;8.902;2023-08-31T08:30:15;4.85;;;3.55;;
22557;SDS011;11445;53.816;8.902;2023-08-31T08:32:41;3.58;;;3.22;;
22557;SDS011;11445;53.816;8.902;2023-08-31T08:35:10;7.40;;;3.45;;
22557;SDS011;11445;53.816;8.902;2023-08-31T08:37:37;5.05;;;3.45;;
22557;SDS011;11445;53.816;8.902;2023-08-31T08:40:04;5.18;;;3.60;;
22557;SDS011;11445;53.816;8.902;2023-08-31T08:42:32;6.82;;;3.30;;
22557;SDS011;11445;53.816;8.902;2023-08-31T08:45:04;4.80;;;3.35;;
22557;SDS011;11445;53.816;8.902;2023-08-31T08:47:33;6.47;;;3.25;;
22557;SDS011;11445;53.816;8.902;2023-08-31T08:50:01;4.75;;;3.53;;
22557;SDS011;11445;53.816;8.902;2023-08-31T08:52:30;5.35;;;3.50;;
22557;SDS011;11445;53.816;8.902;2023-08-31T08:54:57;6.70;;;3.33;;
22557;SDS011;11445;53.816;8.902;2023-08-31T08:57:25;8.10;;;3.50;;
22557;SDS011;11445;53.816;8.902;2023-08-31T08:59:52;4.47;;;3.38;;
22557;SDS011;11445;53.816;8.902;2023-08-31T09:02:19;9.02;;;3.45;;
22557;SDS011;11445;53.816;8.902;2023-08-31T09:04:46;9.48;;;3.42;;
22557;SDS011;11445;53.816;8.902;2023-08-31T09:07:12;4.03;;;2.75;;
22557;SDS011;11445;53.816;8.902;2023-08-31T09:09:50;4.13;;;2.83;;
22557;SDS011;11445;53.816;8.902;2023-08-31T09:12:23;7.93;;;3.58;;
22557;SDS011;11445;53.816;8.902;2023-08-31T09:14:56;10.38;;;3.58;;
22557;SDS011;11445;53.816;8.902;2023-08-31T09:17:24;5.35;;;2.95;;
22557;SDS011;11445;53.816;8.902;2023-08-31T09:19:58;3.80;;;2.25;;
22557;SDS011;11445;53.816;8.902;2023-08-31T09:22:25;4.72;;;2.95;;
22557;SDS011;11445;53.816;8.902;2023-08-31T09:24:54;7.45;;;2.90;;
22557;SDS011;11445;53.816;8.902;2023-08-31T09:27:21;8.85;;;2.65;;
22557;SDS011;11445;53.816;8.902;2023-08-31T09:29:49;3.88;;;2.60;;
22557;SDS011;11445;53.816;8.902;2023-08-31T09:32:17;4.20;;;2.67;;
22557;SDS011;11445;53.816;8.902;2023-08-31T09:34:43;5.70;;;3.03;;
22557;SDS011;11445;53.816;8.902;2023-08-31T09:37:11;5.93;;;2.65;;
22557;SDS011;11445;53.816;8.902;2023-08-31T09:39:38;4.38;;;2.22;;
22557;SDS011;11445;53.816;8.902;2023-08-31T09:42:07;5.53;;;1.80;;
22557;SDS011;11445;53.816;8.902;2023-08-31T09:44:34;2.90;;;1.80;;
22557;SDS011;11445;53.816;8.902;2023-08-31T09:47:08;5.03;;;2.00;;
22557;SDS011;11445;53.816;8.902;2023-08-31T09:49:35;7.85;;;2.30;;
22557;SDS011;11445;53.816;8.902;2023-08-31T09:52:04;5.20;;;2.00;;
22557;SDS011;11445;53.816;8.902;2023-08-31T09:54:33;3.47;;;1.80;;
22557;SDS011;11445;53.816;8.902;2023-08-31T09:57:01;3.03;;;1.63;;
22557;SDS011;11445;53.816;8.902;2023-08-31T09:59:30;3.97;;;1.67;;
22557;SDS011;11445;53.816;8.902;2023-08-31T10:01:59;2.80;;;1.45;;
22557;SDS011;11445;53.816;8.902;2023-08-31T10:04:26;3.85;;;1.50;;
22557;SDS011;11445;53.816;8.902;2023-08-31T10:06:57;8.48;;;2.13;;
22557;SDS011;11445;53.816;8.902;2023-08-31T10:09:24;3.60;;;1.90;;
22557;SDS011;11445;53.816;8.902;2023-08-31T10:11:52;3.22;;;1.83;;
22557;SDS011;11445;53.816;8.902;2023-08-31T10:14:20;1.95;;;1.30;;
22557;SDS011;11445;53.816;8.902;2023-08-31T10:16:49;4.72;;;1.40;;
22557;SDS011;11445;53.816;8.902;2023-08-31T10:19:17;5.38;;;1.63;;
22557;SDS011;11445;53.816;8.902;2023-08-31T10:21:44;7.30;;;1.67;;
22557;SDS011;11445;53.816;8.902;2023-08-31T10:24:11;5.20;;;1.65;;
22557;SDS011;11445;53.816;8.902;2023-08-31T10:26:38;7.28;;;2.08;;
22557;SDS011;11445;53.816;8.902;2023-08-31T10:29:05;6.32;;;1.83;;
22557;SDS011;11445;53.816;8.902;2023-08-31T10:31:32;4.03;;;1.70;;
22557;SDS011;11445;53.816;8.902;2023-08-31T10:34:02;3.33;;;1.45;;
22557;SDS011;11445;53.816;8.902;2023-08-31T10:36:37;4.93;;;2.00;;
22557;SDS011;11445;53.816;8.902;2023-08-31T10:39:06;0.95;;;0.77;;
22557;SDS011;11445;53.816;8.902;2023-08-31T10:41:37;1.83;;;1.10;;
22557;SDS011;11445;53.816;8.902;2023-08-31T10:44:17;1.35;;;0.70;;
22557;SDS011;11445;53.816;8.902;2023-08-31T10:46:45;3.17;;;0.70;;
22557;SDS011;11445;53.816;8.902;2023-08-31T10:49:14;2.05;;;0.80;;
22557;SDS011;11445;53.816;8.902;2023-08-31T10:51:43;2.53;;;0.73;;
22557;SDS011;11445;53.816;8.902;2023-08-31T10:54:12;3.22;;;0.70;;
22557;SDS011;11445;53.816;8.902;2023-08-31T11:04:59;6.55;;;1.17;;
22557;SDS011;11445;53.816;8.902;2023-08-31T11:07:28;2.67;;;0.90;;
22557;SDS011;11445;53.816;8.902;2023-08-31T11:10:06;5.70;;;0.70;;
22557;SDS011;11445;53.816;8.902;2023-08-31T11:12:37;2.00;;;0.80;;
22557;SDS011;11445;53.816;8.902;2023-08-31T11:15:05;3.53;;;1.17;;
22557;SDS011;11445;53.816;8.902;2023-08-31T11:17:33;3.97;;;0.80;;
22557;SDS011;11445;53.816;8.902;2023-08-31T11:20:02;5.10;;;0.90;;
22557;SDS011;11445;53.816;8.902;2023-08-31T11:22:30;1.85;;;0.77;;
22557;SDS011;11445;53.816;8.902;2023-08-31T11:24:57;1.00;;;0.63;;
22557;SDS011;11445;53.816;8.902;2023-08-31T11:27:25;1.48;;;0.68;;
22557;SDS011;11445;53.816;8.902;2023-08-31T11:29:52;1.40;;;0.70;;
22557;SDS011;11445;53.816;8.902;2023-08-31T11:32:19;1.58;;;0.50;;
22557;SDS011;11445;53.816;8.902;2023-08-31T11:34:48;0.82;;;0.57;;
22557;SDS011;11445;53.816;8.902;2023-08-31T11:37:17;3.20;;;0.73;;
22557;SDS011;11445;53.816;8.902;2023-08-31T11:39:48;1.25;;;0.60;;
22557;SDS011;11445;53.816;8.902;2023-08-31T11:42:16;3.35;;;0.60;;
22557;SDS011;11445;53.816;8.902;2023-08-31T11:44:44;1.48;;;0.50;;
22557;SDS011;11445;53.816;8.902;2023-08-31T11:47:11;1.75;;;0.60;;
22557;SDS011;11445;53.816;8.902;2023-08-31T11:49:39;0.60;;;0.57;;
22557;SDS011;11445;53.816;8.902;2023-08-31T11:52:09;0.60;;;0.50;;
22557;SDS011;11445;53.816;8.902;2023-08-31T11:54:38;0.63;;;0.40;;
22557;SDS011;11445;53.816;8.902;2023-08-31T11:57:06;1.42;;;0.40;;
22557;SDS011;11445;53.816;8.902;2023-08-31T11:59:34;0.60;;;0.32;;
22557;SDS011;11445;53.816;8.902;2023-08-31T12:02:04;0.88;;;0.60;;
22557;SDS011;11445;53.816;8.902;2023-08-31T12:04:31;1.35;;;0.60;;
22557;SDS011;11445;53.816;8.902;2023-08-31T12:07:00;0.65;;;0.40;;
22557;SDS011;11445;53.816;8.902;2023-08-31T12:09:29;5.13;;;0.40;;
22557;SDS011;11445;53.816;8.902;2023-08-31T12:11:58;2.67;;;0.47;;
22557;SDS011;11445;53.816;8.902;2023-08-31T12:14:25;1.42;;;0.50;;
22557;SDS011;11445;53.816;8.902;2023-08-31T12:16:59;0.80;;;0.50;;
22557;SDS011;11445;53.816;8.902;2023-08-31T12:19:28;0.60;;;0.50;;
22557;SDS011;11445;53.816;8.902;2023-08-31T12:21:55;1.33;;;0.50;;
22557;SDS011;11445;53.816;8.902;2023-08-31T12:24:22;0.38;;;0.38;;
22557;SDS011;11445;53.816;8.902;2023-08-31T12:26:50;3.88;;;0.65;;
22557;SDS011;11445;53.816;8.902;2023-08-31T12:29:20;1.65;;;0.50;;
22557;SDS011;11445;53.816;8.902;2023-08-31T12:31:47;0.43;;;0.35;;
22557;SDS011;11445;53.816;8.902;2023-08-31T12:34:14;2.85;;;0.50;;
22557;SDS011;11445;53.816;8.902;2023-08-31T12:36:41;0.90;;;0.50;;
22557;SDS011;11445;53.816;8.902;2023-08-31T12:39:08;1.30;;;0.40;;
22557;SDS011;11445;53.816;8.902;2023-08-31T12:41:37;1.80;;;0.45;;
22557;SDS011;11445;53.816;8.902;2023-08-31T12:44:04;1.95;;;0.30;;
22557;SDS011;11445;53.816;8.902;2023-08-31T12:46:32;3.08;;;0.32;;
22557;SDS011;11445;53.816;8.902;2023-08-31T12:48:59;1.13;;;0.32;;
22557;SDS011;11445;53.816;8.902;2023-08-31T12:51:28;0.55;;;0.40;;
22557;SDS011;11445;53.816;8.902;2023-08-31T12:53:54;0.40;;;0.40;;
22557;SDS011;11445;53.816;8.902;2023-08-31T12:56:21;4.45;;;0.70;;
22557;SDS011;11445;53.816;8.902;2023-08-31T12:58:49;2.25;;;0.40;;
22557;SDS011;11445;53.816;8.902;2023-08-31T13:01:16;2.63;;;0.40;;
22557;SDS011;11445;53.816;8.902;2023-08-31T13:03:44;0.93;;;0.40;;
22557;SDS011;11445;53.816;8.902;2023-08-31T13:06:12;1.38;;;0.50;;
22557;SDS011;11445;53.816;8.902;2023-08-31T13:08:39;2.00;;;0.50;;
22557;SDS011;11445;53.816;8.902;2023-08-31T13:11:06;1.10;;;0.60;;
22557;SDS011;11445;53.816;8.902;2023-08-31T13:13:33;1.42;;;0.63;;
22557;SDS011;11445;53.816;8.902;2023-08-31T13:16:00;0.80;;;0.50;;
22557;SDS011;11445;53.816;8.902;2023-08-31T13:18:27;1.63;;;0.50;;
22557;SDS011;11445;53.816;8.902;2023-08-31T13:20:55;1.02;;;0.50;;
22557;SDS011;11445;53.816;8.902;2023-08-31T13:23:22;2.65;;;0.70;;
22557;SDS011;11445;53.816;8.902;2023-08-31T13:25:50;0.65;;;0.43;;
22557;SDS011;11445;53.816;8.902;2023-08-31T13:28:17;1.95;;;0.57;;
22557;SDS011;11445;53.816;8.902;2023-08-31T13:30:43;1.52;;;0.47;;
22557;SDS011;11445;53.816;8.902;2023-08-31T13:33:11;1.40;;;0.63;;
22557;SDS011;11445;53.816;8.902;2023-08-31T13:35:37;1.13;;;0.52;;
22557;SDS011;11445;53.816;8.902;2023-08-31T13:38:06;2.13;;;0.57;;
22557;SDS011;11445;53.816;8.902;2023-08-31T13:40:33;1.33;;;0.50;;
22557;SDS011;11445;53.816;8.902;2023-08-31T13:43:01;2.22;;;0.70;;
22557;SDS011;11445;53.816;8.902;2023-08-31T13:45:29;3.13;;;0.50;;
22557;SDS011;11445;53.816;8.902;2023-08-31T13:47:56;1.42;;;0.60;;
22557;SDS011;11445;53.816;8.902;2023-08-31T13:50:25;2.15;;;0.70;;
22557;SDS011;11445;53.816;8.902;2023-08-31T13:52:52;3.47;;;0.70;;
22557;SDS011;11445;53.816;8.902;2023-08-31T13:55:20;0.75;;;0.63;;
22557;SDS011;11445;53.816;8.902;2023-08-31T13:57:48;4.00;;;0.80;;
22557;SDS011;11445;53.816;8.902;2023-08-31T14:00:15;1.98;;;0.73;;
22557;SDS011;11445;53.816;8.902;2023-08-31T14:02:42;3.92;;;0.88;;
22557;SDS011;11445;53.816;8.902;2023-08-31T14:05:09;5.78;;;0.80;;
22557;SDS011;11445;53.816;8.902;2023-08-31T14:07:37;2.35;;;0.85;;
22557;SDS011;11445;53.816;8.902;2023-08-31T14:10:04;1.65;;;0.70;;
22557;SDS011;11445;53.816;8.902;2023-08-31T14:12:33;2.60;;;0.85;;
22557;SDS011;11445;53.816;8.902;2023-08-31T14:15:00;4.63;;;0.82;;
22557;SDS011;11445;53.816;8.902;2023-08-31T14:17:28;1.17;;;0.55;;
22557;SDS011;11445;53.816;8.902;2023-08-31T14:19:56;3.90;;;0.70;;
22557;SDS011;11445;53.816;8.902;2023-08-31T14:22:24;1.70;;;0.70;;
22557;SDS011;11445;53.816;8.902;2023-08-31T14:24:51;2.33;;;0.70;;
22557;SDS011;11445;53.816;8.902;2023-08-31T14:27:18;1.52;;;1.00;;
22557;SDS011;11445;53.816;8.902;2023-08-31T14:29:46;3.20;;;0.70;;
22557;SDS011;11445;53.816;8.902;2023-08-31T14:32:13;1.42;;;0.80;;
22557;SDS011;11445;53.816;8.902;2023-08-31T14:34:40;2.45;;;0.90;;
22557;SDS011;11445;53.816;8.902;2023-08-31T14:37:06;0.82;;;0.60;;
22557;SDS011;11445;53.816;8.902;2023-08-31T14:39:33;1.52;;;0.70;;
22557;SDS011;11445;53.816;8.902;2023-08-31T14:42:00;2.28;;;0.77;;
22557;SDS011;11445;53.816;8.902;2023-08-31T14:44:28;2.17;;;0.88;;
22557;SDS011;11445;53.816;8.902;2023-08-31T14:46:56;0.60;;;0.57;;
22557;SDS011;11445;53.816;8.902;2023-08-31T14:49:23;3.05;;;0.90;;
22557;SDS011;11445;53.816;8.902;2023-08-31T14:51:51;1.13;;;0.70;;
22557;SDS011;11445;53.816;8.902;2023-08-31T14:54:17;0.73;;;0.60;;
22557;SDS011;11445;53.816;8.902;2023-08-31T14:56:44;1.70;;;0.73;;
22557;SDS011;11445;53.816;8.902;2023-08-31T14:59:11;2.65;;;0.50;;